Time;durP1;ratioP1;P1;durP2;ratioP2;P2;SDS_P1;SDS_P2;PMS_P1;PMS_P2;Temp;Humidity;BMP_temperature;BMP_pressure;BME280_temperature;BME280_humidity;BME280_pressure;Samples;Min_cycle;Max_cycle;Signal;HPM_P1;HPM_P2
2022/07/27 00:02:04;;;;;;;4.40;1.85;;;;;;;15.00;100.00;100924.69;5080305;28;20390;-69
2022/07/27 00:04:30;;;;;;;4.88;2.00;;;;;;;14.91;100.00;100908.47;5071878;28;20032;-71
2022/07/27 00:06:55;;;;;;;5.35;2.03;;;;;;;14.99;100.00;100932.72;5066729;28;20076;-71
2022/07/27 00:09:21;;;;;;;15.57;2.20;;;;;;;14.99;100.00;100933.56;5072016;28;20108;-71
2022/07/27 00:11:46;;;;;;;4.53;1.50;;;;;;;15.02;100.00;100943.97;5065236;28;20050;-71
2022/07/27 00:14:12;;;;;;;3.58;1.65;;;;;;;14.91;100.00;100925.22;5074283;28;20021;-71
2022/07/27 00:16:37;;;;;;;5.25;1.77;;;;;;;14.66;100.00;100888.81;5065003;28;20024;-71
2022/07/27 00:19:03;;;;;;;6.47;1.60;;;;;;;14.93;100.00;100941.88;5071514;28;20059;-70
2022/07/27 00:21:28;;;;;;;6.22;2.25;;;;;;;14.90;100.00;100938.56;5063842;28;20391;-71
2022/07/27 00:23:54;;;;;;;4.45;1.70;;;;;;;14.82;100.00;100939.00;5086110;28;20041;-71
2022/07/27 00:26:19;;;;;;;8.20;1.85;;;;;;;14.71;100.00;100930.84;5065266;28;20376;-71
2022/07/27 00:28:44;;;;;;;3.97;1.92;;;;;;;14.63;100.00;100919.88;5053521;28;20074;-71
2022/07/27 00:31:10;;;;;;;6.20;1.77;;;;;;;14.67;100.00;100942.53;5063437;28;20123;-71
2022/07/27 00:33:35;;;;;;;7.35;1.63;;;;;;;14.60;100.00;100941.22;5068531;28;20437;-71
2022/07/27 00:36:01;;;;;;;4.35;1.60;;;;;;;14.54;100.00;100942.41;5058035;28;20053;-71
2022/07/27 00:38:27;;;;;;;5.40;1.65;;;;;;;14.45;100.00;100942.94;5061011;28;20029;-71
2022/07/27 00:40:52;;;;;;;3.53;1.48;;;;;;;14.39;100.00;100953.88;5086782;28;20031;-71
2022/07/27 00:43:18;;;;;;;5.50;2.22;;;;;;;14.20;100.00;100918.78;5076693;28;20081;-71
2022/07/27 00:45:43;;;;;;;6.55;2.53;;;;;;;14.18;100.00;100936.53;5076216;28;20029;-71
2022/07/27 00:48:09;;;;;;;5.28;2.22;;;;;;;14.22;100.00;100946.88;5064065;28;20059;-71
2022/07/27 00:50:35;;;;;;;4.68;1.95;;;;;;;14.14;100.00;100943.78;5062259;28;20107;-71
2022/07/27 00:53:00;;;;;;;8.13;2.13;;;;;;;13.97;100.00;100916.59;5069516;28;20094;-71
2022/07/27 00:55:26;;;;;;;6.07;1.92;;;;;;;13.83;100.00;100917.34;5076336;28;20035;-72
2022/07/27 00:57:51;;;;;;;5.03;2.22;;;;;;;13.71;100.00;100912.75;5064961;28;20091;-71
2022/07/27 01:00:17;;;;;;;6.72;1.83;;;;;;;13.65;100.00;100913.09;5064006;28;20025;-70
2022/07/27 01:02:42;;;;;;;5.88;2.25;;;;;;;13.60;100.00;100925.69;5052591;28;20419;-71
2022/07/27 01:05:08;;;;;;;4.78;1.90;;;;;;;13.63;100.00;100936.09;5058268;28;20028;-71
2022/07/27 01:07:34;;;;;;;7.78;2.33;;;;;;;13.53;100.00;100921.66;5082905;28;20471;-71
2022/07/27 01:09:59;;;;;;;3.30;1.67;;;;;;;13.51;100.00;100918.28;5069395;28;20028;-71
2022/07/27 01:12:30;;;;;;;10.07;2.35;;;;;;;13.44;100.00;100920.41;5071082;28;20025;-71
2022/07/27 01:14:56;;;;;;;7.68;2.55;;;;;;;13.39;100.00;100921.56;5071028;28;20024;-71
2022/07/27 01:17:22;;;;;;;4.78;1.80;;;;;;;13.42;100.00;100931.97;5079799;28;20024;-71
2022/07/27 01:19:48;;;;;;;2.83;1.35;;;;;;;13.36;100.00;100921.72;5078503;28;20032;-71
2022/07/27 01:22:13;;;;;;;6.18;1.70;;;;;;;13.20;100.00;100896.16;5055187;28;20036;-71
2022/07/27 01:24:38;;;;;;;5.63;2.08;;;;;;;13.22;100.00;100915.38;5061188;28;20535;-71
2022/07/27 01:27:05;;;;;;;7.28;1.75;;;;;;;13.19;100.00;100931.38;5069092;28;20108;-71
2022/07/27 01:29:32;;;;;;;9.15;1.83;;;;;;;13.04;100.00;100913.69;5087883;28;20056;-71
2022/07/27 01:31:58;;;;;;;3.45;1.75;;;;;;;13.07;100.00;100931.16;5083091;28;20020;-71
2022/07/27 01:34:23;;;;;;;6.50;2.45;;;;;;;12.89;100.00;100917.13;5056869;28;20044;-71
2022/07/27 01:36:49;;;;;;;6.00;1.85;;;;;;;12.94;100.00;100927.44;5069359;28;20044;-71
2022/07/27 01:39:16;;;;;;;6.75;2.72;;;;;;;12.86;100.00;100933.09;5066649;28;20051;-71
2022/07/27 01:41:41;;;;;;;5.75;1.63;;;;;;;12.69;100.00;100904.94;5055117;28;20020;-72
2022/07/27 01:44:07;;;;;;;3.25;1.92;;;;;;;12.52;100.00;100883.00;5055785;28;20036;-72
2022/07/27 01:46:32;;;;;;;9.50;2.03;;;;;;;12.70;100.00;100919.00;5070771;28;20432;-72
2022/07/27 01:48:58;;;;;;;3.67;1.60;;;;;;;12.63;100.00;100915.81;5058058;28;20025;-72
2022/07/27 01:51:23;;;;;;;5.88;2.47;;;;;;;12.60;100.00;100928.28;5083397;28;20050;-72
2022/07/27 01:53:48;;;;;;;4.40;2.22;;;;;;;12.55;100.00;100925.88;5059668;28;20025;-72
2022/07/27 01:56:14;;;;;;;5.55;2.28;;;;;;;12.49;100.00;100923.56;5066201;28;20105;-71
2022/07/27 01:58:40;;;;;;;7.38;2.65;;;;;;;12.42;100.00;100926.56;5067705;28;20056;-71
2022/07/27 02:01:06;;;;;;;7.22;2.15;;;;;;;12.14;100.00;100887.53;5065255;28;20027;-71
2022/07/27 02:03:32;;;;;;;4.47;2.28;;;;;;;12.28;100.00;100917.56;5084194;28;20445;-71
2022/07/27 02:05:58;;;;;;;4.45;2.35;;;;;;;12.29;100.00;100927.19;5072053;28;20032;-71
2022/07/27 02:08:23;;;;;;;5.93;2.22;;;;;;;11.87;100.00;100868.66;5067092;28;20464;-71
2022/07/27 02:13:33;;;;;;;8.87;2.87;;;;;;;12.00;100.00;100897.88;5058758;28;20502;-71
2022/07/27 02:15:59;;;;;;;5.90;2.15;;;;;;;12.17;100.00;100922.47;5060326;28;20279;-72
2022/07/27 02:18:24;;;;;;;5.22;2.33;;;;;;;12.10;100.00;100907.91;5069704;28;20047;-72
2022/07/27 02:20:50;;;;;;;4.57;2.25;;;;;;;12.09;100.00;100908.84;5079151;28;20107;-72
2022/07/27 02:23:15;;;;;;;5.75;2.08;;;;;;;12.17;100.00;100922.47;5075240;28;20078;-72
2022/07/27 02:25:41;;;;;;;3.75;2.03;;;;;;;12.05;100.00;100902.00;5078753;28;20520;-71
2022/07/27 02:28:06;;;;;;;4.50;2.15;;;;;;;12.07;100.00;100909.81;5064339;28;20079;-71
2022/07/27 02:30:32;;;;;;;10.05;2.50;;;;;;;12.10;100.00;100925.50;5075880;28;20033;-71
2022/07/27 02:32:57;;;;;;;4.78;1.95;;;;;;;12.01;100.00;100915.38;5072675;28;20016;-71
2022/07/27 02:35:22;;;;;;;3.95;1.98;;;;;;;12.03;100.00;100924.09;5074997;28;20380;-71
2022/07/27 02:37:48;;;;;;;5.03;2.00;;;;;;;11.91;100.00;100909.72;5071148;28;20032;-72
2022/07/27 02:40:15;;;;;;;5.88;2.15;;;;;;;11.85;100.00;100907.38;5064761;28;20375;-72
2022/07/27 02:42:41;;;;;;;7.93;1.98;;;;;;;11.87;100.00;100915.19;5054995;28;20029;-71
2022/07/27 02:45:08;;;;;;;5.95;2.20;;;;;;;11.76;100.00;100905.19;5062708;28;20090;-71
2022/07/27 02:47:33;;;;;;;6.40;2.15;;;;;;;11.62;100.00;100902.31;5057338;28;20433;-71
2022/07/27 02:50:00;;;;;;;5.47;2.42;;;;;;;11.45;100.00;100879.41;5073395;28;20024;-71
2022/07/27 02:52:26;;;;;;;6.15;2.05;;;;;;;11.64;100.00;100921.50;5073064;28;20033;-70
2022/07/27 02:54:51;;;;;;;4.45;1.90;;;;;;;11.39;100.00;100886.72;5054905;28;20078;-70
2022/07/27 02:57:17;;;;;;;5.82;2.00;;;;;;;11.44;100.00;100903.13;5068332;28;20620;-71
2022/07/27 02:59:42;;;;;;;4.53;2.05;;;;;;;11.47;100.00;100918.78;5060368;28;20039;-71
2022/07/27 03:02:07;;;;;;;5.65;2.25;;;;;;;11.37;100.00;100912.22;5074400;28;20483;-70
2022/07/27 03:04:33;;;;;;;3.38;1.73;;;;;;;11.32;100.00;100920.34;5060843;28;20035;-71
2022/07/27 03:06:58;;;;;;;6.32;2.40;;;;;;;11.16;100.00;100909.63;5086603;28;20028;-72
2022/07/27 03:09:24;;;;;;;3.95;1.90;;;;;;;11.21;100.00;100922.59;5073703;28;20101;-72
2022/07/27 03:11:49;;;;;;;4.13;1.88;;;;;;;11.05;100.00;100900.53;5089865;28;20028;-72
2022/07/27 03:14:15;;;;;;;3.10;1.73;;;;;;;11.03;100.00;100908.47;5084913;28;20390;-72
2022/07/27 03:16:40;;;;;;;4.18;1.83;;;;;;;10.95;100.00;100901.84;5079469;28;20031;-72
2022/07/27 03:19:05;;;;;;;8.43;2.95;;;;;;;10.99;100.00;100922.66;5077394;28;20044;-72
2022/07/27 03:21:31;;;;;;;4.72;2.05;;;;;;;10.93;100.00;100917.69;5081071;28;20028;-72
2022/07/27 03:23:56;;;;;;;6.40;2.20;;;;;;;10.84;100.00;100912.81;5073545;28;20432;-72
2022/07/27 03:26:21;;;;;;;3.60;1.98;;;;;;;10.87;100.00;100923.22;5083105;28;20028;-72
2022/07/27 03:28:47;;;;;;;9.25;2.58;;;;;;;10.75;100.00;100918.47;5071838;28;20103;-72
2022/07/27 03:31:12;;;;;;;7.65;2.38;;;;;;;10.76;100.00;100920.19;5074343;28;20025;-72
2022/07/27 03:33:37;;;;;;;5.45;2.20;;;;;;;10.65;100.00;100911.88;5120557;27;20096;-72
2022/07/27 03:36:03;;;;;;;5.22;2.15;;;;;;;10.59;100.00;100912.16;5092610;28;20028;-71
2022/07/27 03:38:29;;;;;;;6.18;2.47;;;;;;;10.64;100.00;100923.34;5080409;28;20032;-71
2022/07/27 03:40:54;;;;;;;4.60;2.10;;;;;;;10.33;100.00;100886.13;5063735;28;20035;-71
2022/07/27 03:43:19;;;;;;;7.05;2.92;;;;;;;10.39;100.00;100904.25;5081471;28;20499;-71
2022/07/27 03:45:45;;;;;;;5.80;2.45;;;;;;;10.53;100.00;100933.44;5057877;28;20028;-71
2022/07/27 03:48:10;;;;;;;6.50;2.97;;;;;;;10.41;100.00;100918.19;5064589;28;20491;-72
2022/07/27 03:50:36;;;;;;;4.28;2.35;;;;;;;10.45;100.00;100930.25;5054557;28;20398;-72
2022/07/27 03:53:01;;;;;;;4.70;2.35;;;;;;;10.36;100.00;100925.38;5094497;28;20060;-72
2022/07/27 03:55:27;;;;;;;8.55;1.98;;;;;;;10.31;100.00;100925.56;5074279;28;20452;-72
2022/07/27 03:57:52;;;;;;;6.25;2.47;;;;;;;10.32;100.00;100932.53;5053409;28;20032;-72
2022/07/27 04:00:18;;;;;;;5.95;2.13;;;;;;;10.35;100.00;100936.78;5063271;28;20021;-72
2022/07/27 04:02:44;;;;;;;3.17;1.80;;;;;;;10.33;100.00;100941.28;5051447;28;20028;-72
2022/07/27 04:05:10;;;;;;;4.80;2.40;;;;;;;10.22;100.00;100934.69;5081231;28;20028;-72
2022/07/27 04:07:36;;;;;;;4.18;2.33;;;;;;;10.20;100.00;100939.16;5056750;28;20033;-71
2022/07/27 04:10:02;;;;;;;4.60;2.40;;;;;;;10.22;100.00;100937.31;5053313;28;20043;-73
2022/07/27 04:12:28;;;;;;;4.00;2.03;;;;;;;9.93;100.00;100890.31;5089598;28;20060;-71
2022/07/27 04:14:53;;;;;;;8.43;2.83;;;;;;;10.06;100.00;100915.19;5066986;28;20059;-72
2022/07/27 04:17:18;;;;;;;6.40;2.30;;;;;;;10.22;100.00;100939.94;5052799;28;20455;-72
2022/07/27 04:19:44;;;;;;;4.68;2.42;;;;;;;10.10;100.00;100934.28;5071425;28;20120;-72
2022/07/27 04:22:09;;;;;;;5.88;2.42;;;;;;;10.05;100.00;100941.47;5071080;28;20022;-72
2022/07/27 04:24:34;;;;;;;8.32;2.75;;;;;;;10.07;100.00;100951.00;5061985;28;20033;-72
2022/07/27 04:27:00;;;;;;;6.45;2.28;;;;;;;10.09;100.00;100943.94;5075860;28;20117;-72
2022/07/27 04:29:26;;;;;;;4.60;2.55;;;;;;;9.99;100.00;100925.97;5073204;28;20082;-72
2022/07/27 04:31:51;;;;;;;8.25;2.78;;;;;;;10.10;100.00;100935.16;5069233;28;20479;-72
2022/07/27 04:34:17;;;;;;;7.93;2.60;;;;;;;9.85;100.00;100892.38;5058490;28;20032;-72
2022/07/27 04:36:43;;;;;;;8.73;2.90;;;;;;;10.18;100.00;100953.22;5076928;28;20072;-71
2022/07/27 04:39:09;;;;;;;5.50;2.58;;;;;;;9.92;100.00;100908.75;5070792;28;20482;-72
2022/07/27 04:41:34;;;;;;;5.53;2.65;;;;;;;10.23;100.00;100954.78;5059284;28;20033;-72
2022/07/27 04:44:00;;;;;;;3.85;2.13;;;;;;;10.29;100.00;100961.56;5048561;28;20033;-72
2022/07/27 04:46:26;;;;;;;6.57;2.67;;;;;;;10.31;100.00;100961.50;5086428;28;20028;-72
2022/07/27 04:48:51;;;;;;;3.45;2.13;;;;;;;10.33;100.00;100968.41;5063919;28;20117;-72
2022/07/27 04:51:17;;;;;;;6.07;2.33;;;;;;;10.33;100.00;100957.88;5078293;28;20479;-72
2022/07/27 04:53:42;;;;;;;4.50;2.65;;;;;;;10.37;100.00;100959.47;5057462;28;20020;-72
2022/07/27 04:56:08;;;;;;;5.18;2.78;;;;;;;10.49;100.00;100963.38;5082079;28;20476;-72
2022/07/27 04:58:34;;;;;;;6.47;2.72;;;;;;;10.43;100.00;100947.88;5074361;28;20031;-72
2022/07/27 05:00:59;;;;;;;5.90;3.45;;;;;;;10.49;100.00;100960.75;5055357;28;20029;-72
2022/07/27 05:03:25;;;;;;;4.75;2.42;;;;;;;10.52;100.00;100947.47;5078236;28;20032;-72
2022/07/27 05:05:50;;;;;;;4.85;2.70;;;;;;;10.67;100.00;100960.00;5059235;28;20033;-72
2022/07/27 05:08:16;;;;;;;6.38;3.40;;;;;;;10.77;100.00;100958.69;5085236;28;20513;-71
2022/07/27 05:10:42;;;;;;;6.22;3.60;;;;;;;10.84;100.00;100946.16;5050532;28;20021;-72
2022/07/27 05:13:07;;;;;;;7.28;4.00;;;;;;;11.01;100.00;100952.41;5078028;27;20020;-72
2022/07/27 05:15:33;;;;;;;6.22;3.58;;;;;;;11.14;100.00;100958.84;5060759;28;20120;-72
2022/07/27 05:17:58;;;;;;;8.65;3.55;;;;;;;11.38;100.00;100971.81;5068503;28;20052;-71
2022/07/27 05:20:24;;;;;;;10.00;3.60;;;;;;;11.45;100.00;100962.75;5048732;28;20664;-72
2022/07/27 05:22:50;;;;;;;4.88;2.92;;;;;;;11.43;100.00;100940.88;5061966;28;20025;-71
2022/07/27 05:25:15;;;;;;;9.93;4.43;;;;;;;11.75;100.00;100971.91;5069631;28;20446;-71
2022/07/27 05:27:41;;;;;;;16.02;3.75;;;;;;;11.79;100.00;100952.44;5071390;28;20040;-71
2022/07/27 05:30:08;;;;;;;9.25;4.00;;;;;;;11.96;100.00;100967.44;5062398;28;20163;-72
2022/07/27 05:32:33;;;;;;;5.93;2.97;;;;;;;12.00;100.00;100959.31;5072580;28;20025;-71
2022/07/27 05:34:59;;;;;;;6.05;2.97;;;;;;;12.18;100.00;100966.34;5055080;28;20171;-71
2022/07/27 05:37:24;;;;;;;4.35;2.63;;;;;;;12.29;100.00;100963.22;5066401;28;20632;-71
2022/07/27 05:39:49;;;;;;;12.13;3.20;;;;;;;12.44;100.00;100972.13;5062867;28;20024;-71
2022/07/27 05:42:15;;;;;;;5.82;2.92;;;;;;;12.50;100.00;100969.22;5050213;28;20032;-71
2022/07/27 05:44:40;;;;;;;5.38;2.85;;;;;;;12.66;100.00;100983.34;5059847;28;20024;-71
2022/07/27 05:47:06;;;;;;;4.68;2.45;;;;;;;12.73;100.00;100979.47;5056296;28;20135;-71
2022/07/27 05:49:31;;;;;;;7.20;2.72;;;;;;;12.79;100.00;100981.81;5051482;28;20029;-71
2022/07/27 05:51:56;;;;;;;6.45;2.60;;;;;;;12.85;100.00;100981.50;5063827;28;20024;-71
2022/07/27 05:54:22;;;;;;;4.95;2.30;;;;;;;13.01;100.00;100987.69;5071590;28;20059;-71
2022/07/27 05:56:47;;;;;;;7.00;2.47;;;;;;;13.08;100.00;100986.47;5071841;28;20459;-71
2022/07/27 05:59:13;;;;;;;10.65;2.80;;;;;;;13.20;100.00;100991.16;5065378;28;20458;-71
2022/07/27 06:01:38;;;;;;;7.13;2.30;;;;;;;13.19;100.00;100972.75;5064921;28;20027;-71
2022/07/27 06:04:04;;;;;;;10.68;2.67;;;;;;;13.39;100.00;100992.81;5052842;28;20182;-71
2022/07/27 06:09:13;;;;;;;7.13;2.50;;;;;;;13.43;100.00;100976.75;5064230;28;20415;-71
2022/07/27 06:11:39;;;;;;;7.15;2.00;;;;;;;13.64;100.00;100993.25;5070504;28;20025;-72
2022/07/27 06:14:04;;;;;;;5.65;1.85;;;;;;;13.68;100.00;100986.88;5069185;28;20027;-71
2022/07/27 06:16:30;;;;;;;4.97;1.77;;;;;;;13.66;100.00;100979.03;5065684;28;20479;-70
2022/07/27 06:18:55;;;;;;;4.40;1.90;;;;;;;13.78;100.00;100978.38;5062178;28;20029;-71
2022/07/27 06:21:24;;;;;;;5.30;1.75;;;;;;;13.93;100.00;100992.53;5063520;28;20021;-71
2022/07/27 06:23:50;;;;;;;5.20;1.67;;;;;;;13.98;100.00;100982.59;5068947;28;20028;-71
2022/07/27 06:26:15;;;;;;;3.45;1.27;;;;;;;13.95;100.00;100966.91;5076926;28;20100;-71
2022/07/27 06:28:40;;;;;;;5.60;1.58;;;;;;;14.21;100.00;101000.66;5067614;28;20029;-71
2022/07/27 06:31:06;;;;;;;8.98;2.35;;;;;;;14.20;100.00;100991.00;5066540;28;20111;-72
2022/07/27 06:33:31;;;;;;;4.10;1.63;;;;;;;14.03;100.00;100950.59;5074374;28;20533;-72
2022/07/27 06:35:58;;;;;;;5.90;1.67;;;;;;;14.16;100.00;100957.75;5061730;28;20024;-72
2022/07/27 06:38:24;;;;;;;2.83;1.30;;;;;;;14.48;100.00;101002.72;5068474;28;20021;-72
2022/07/27 06:40:52;;;;;;;5.47;1.38;;;;;;;14.53;100.00;100998.88;5063422;28;20035;-72
2022/07/27 06:43:19;;;;;;;4.50;1.35;;;;;;;14.58;100.00;100986.25;5062750;28;20099;-72
2022/07/27 06:45:44;;;;;;;5.90;1.55;;;;;;;14.71;100.00;100997.81;5072207;28;20268;-72
2022/07/27 06:48:10;;;;;;;2.83;0.90;;;;;;;14.80;100.00;101001.75;5072732;28;20112;-72
2022/07/27 06:50:36;;;;;;;3.40;1.27;;;;;;;14.84;100.00;100993.53;5061438;28;20025;-72
2022/07/27 06:53:01;;;;;;;3.78;1.13;;;;;;;14.78;100.00;100982.44;5069929;28;20486;-72
2022/07/27 06:55:26;;;;;;;3.30;0.98;;;;;;;14.97;100.00;101004.25;5070450;28;20035;-72
2022/07/27 06:57:52;;;;;;;8.40;1.23;;;;;;;14.95;100.00;100994.69;5072758;28;20094;-72
2022/07/27 07:00:17;;;;;;;2.72;1.20;;;;;;;14.97;100.00;100998.94;5070219;28;20486;-72
2022/07/27 07:02:59;;;;;;;4.50;1.50;;;;;;;15.06;100.00;100997.56;5068090;28;20021;-72
2022/07/27 07:05:25;;;;;;;6.43;1.58;;;;;;;15.13;100.00;101005.06;5077608;28;20055;-72
2022/07/27 07:07:51;;;;;;;2.25;0.90;;;;;;;15.12;100.00;101008.66;5070452;28;20029;-71
2022/07/27 07:10:17;;;;;;;3.42;1.15;;;;;;;15.20;100.00;101005.56;5079167;28;20069;-72
2022/07/27 07:12:42;;;;;;;3.45;1.25;;;;;;;15.11;100.00;100996.34;5066138;28;20025;-72
2022/07/27 07:15:09;;;;;;;7.13;1.60;;;;;;;15.11;100.00;100999.00;5048630;28;20357;-72
2022/07/27 07:17:35;;;;;;;4.85;1.40;;;;;;;15.13;100.00;100999.78;5054762;28;20518;-73
2022/07/27 07:20:01;;;;;;;3.65;0.70;;;;;;;15.17;100.00;101014.53;5073640;28;20916;-72
2022/07/27 07:22:26;;;;;;;4.03;1.05;;;;;;;15.18;100.00;101018.88;5061019;28;20024;-71
2022/07/27 07:24:51;;;;;;;4.13;1.20;;;;;;;15.09;100.00;101022.06;5086975;28;20035;-72
2022/07/27 07:27:22;;;;;;;3.15;1.20;;;;;;;14.85;100.00;100981.16;5059169;28;20063;-73
2022/07/27 07:29:48;;;;;;;3.03;1.13;;;;;;;15.15;100.00;101013.75;5073122;28;20165;-72
2022/07/27 07:32:14;;;;;;;1.90;0.82;;;;;;;15.16;100.00;101004.88;5082880;28;20028;-72
2022/07/27 07:34:39;;;;;;;4.53;1.13;;;;;;;15.36;100.00;101016.94;5063293;28;20037;-72
2022/07/27 07:37:05;;;;;;;3.13;0.90;;;;;;;15.55;100.00;101017.53;5059461;28;20037;-72
2022/07/27 07:39:30;;;;;;;2.65;1.10;;;;;;;15.59;100.00;101018.22;5055115;28;20487;-72
2022/07/27 07:41:55;;;;;;;1.90;0.75;;;;;;;15.71;100.00;101025.44;5073890;28;20067;-72
2022/07/27 07:44:21;;;;;;;2.30;0.75;;;;;;;15.72;100.00;101004.13;5074613;28;20487;-72
2022/07/27 07:46:46;;;;;;;3.67;1.00;;;;;;;15.78;100.00;101013.50;5074154;28;20036;-72
2022/07/27 07:49:11;;;;;;;5.65;0.90;;;;;;;15.86;100.00;101021.81;5072955;28;20028;-71
2022/07/27 07:51:37;;;;;;;3.50;1.40;;;;;;;15.82;100.00;101012.34;5062113;28;20033;-72
2022/07/27 07:54:02;;;;;;;4.15;1.50;;;;;;;15.86;100.00;101021.81;5083166;28;20467;-72
2022/07/27 07:56:28;;;;;;;3.28;1.35;;;;;;;15.81;100.00;101016.81;5076986;28;20028;-72
2022/07/27 07:58:53;;;;;;;5.30;1.42;;;;;;;15.97;100.00;101023.81;5060921;28;20020;-71
2022/07/27 08:01:19;;;;;;;5.05;1.15;;;;;;;15.96;100.00;101000.88;5057271;28;20025;-72
2022/07/27 08:03:44;;;;;;;2.38;0.68;;;;;;;16.24;100.00;101027.38;5066059;28;20038;-72
2022/07/27 08:06:09;;;;;;;2.60;1.00;;;;;;;16.34;100.00;101039.94;5057970;28;20040;-72
2022/07/27 08:08:35;;;;;;;3.53;1.00;;;;;;;16.32;100.00;101025.09;5057355;28;20044;-73
2022/07/27 08:11:00;;;;;;;3.80;1.08;;;;;;;16.32;100.00;101028.56;5054522;28;20121;-71
2022/07/27 08:13:25;;;;;;;3.83;1.40;;;;;;;16.23;100.00;101015.06;5072254;28;20032;-72
2022/07/27 08:15:51;;;;;;;2.97;0.82;;;;;;;16.21;100.00;101028.44;5070134;28;20024;-71
2022/07/27 08:18:17;;;;;;;2.58;1.33;;;;;;;16.15;100.00;101018.22;5059520;28;20205;-72
2022/07/27 08:20:43;;;;;;;6.72;1.55;;;;;;;16.20;100.00;101021.41;5060647;28;20040;-71
2022/07/27 08:23:08;;;;;;;2.83;1.40;;;;;;;16.23;100.00;101023.84;5063818;28;20020;-72
2022/07/27 08:25:34;;;;;;;3.13;1.30;;;;;;;16.31;100.00;101032.19;5072331;28;20020;-72
2022/07/27 08:27:59;;;;;;;2.38;1.00;;;;;;;16.23;100.00;101010.59;5071748;28;20028;-72
2022/07/27 08:30:25;;;;;;;5.55;1.60;;;;;;;16.33;100.00;101030.28;5058394;28;20390;-70
2022/07/27 08:32:53;;;;;;;6.13;1.25;;;;;;;16.46;100.00;101027.69;5053133;28;20021;-71
2022/07/27 08:35:19;;;;;;;3.72;1.23;;;;;;;16.69;100.00;101036.88;5055126;28;20426;-72
2022/07/27 08:37:45;;;;;;;4.00;1.10;;;;;;;16.39;100.00;100993.72;5061578;28;20032;-71
2022/07/27 08:40:11;;;;;;;2.78;1.10;;;;;;;16.55;100.00;101019.19;5058172;28;20089;-72
2022/07/27 08:42:39;;;;;;;3.75;1.13;;;;;;;16.51;100.00;101027.41;5053303;28;20040;-70
2022/07/27 08:45:05;;;;;;;4.13;0.90;;;;;;;16.46;100.00;101024.22;5077757;28;20032;-72
2022/07/27 08:47:31;;;;;;;3.67;0.88;;;;;;;16.10;100.00;100983.16;5062742;28;20162;-72
2022/07/27 08:49:57;;;;;;;1.73;0.75;;;;;;;16.36;100.00;101030.09;5078364;28;20051;-72
2022/07/27 08:52:22;;;;;;;3.15;1.08;;;;;;;16.31;100.00;101034.84;5059658;28;20102;-72
2022/07/27 08:54:48;;;;;;;4.88;1.33;;;;;;;16.21;100.00;101028.44;5061932;28;20041;-72
2022/07/27 08:57:14;;;;;;;1.55;0.68;;;;;;;16.05;100.00;101022.41;5055249;28;20036;-72
2022/07/27 08:59:39;;;;;;;2.67;0.98;;;;;;;16.07;100.00;101031.09;5053695;28;20033;-73
2022/07/27 09:02:09;;;;;;;2.55;0.98;;;;;;;16.11;100.00;101037.91;5056346;28;20169;-72
2022/07/27 09:04:35;;;;;;;1.90;0.85;;;;;;;16.16;100.00;101035.81;5064773;28;20057;-72
2022/07/27 09:07:00;;;;;;;3.58;1.02;;;;;;;16.33;100.00;101038.25;5063126;28;20114;-72
2022/07/27 09:09:25;;;;;;;1.88;0.80;;;;;;;16.45;100.00;101014.53;5086327;28;20039;-72
2022/07/27 09:12:06;;;;;;;4.22;0.73;;;;;;;16.62;100.00;101014.34;5063493;28;20422;-71
2022/07/27 09:14:33;;;;;;;1.95;0.60;;;;;;;16.78;100.00;101033.59;5060297;28;20071;-72
2022/07/27 09:17:06;;;;;;;2.28;0.73;;;;;;;16.65;100.00;101027.41;5048952;28;20507;-73
2022/07/27 09:19:51;;;;;;;4.22;0.95;;;;;;;16.56;100.00;101036.78;5084312;28;20126;-72
2022/07/27 09:22:37;;;;;;;2.05;0.82;;;;;;;16.56;100.00;101033.31;5051267;28;20033;-72
2022/07/27 09:25:03;;;;;;;6.85;0.93;;;;;;;16.48;100.00;101032.91;5057166;28;20033;-72
2022/07/27 09:27:29;;;;;;;2.10;0.95;;;;;;;16.51;100.00;101052.13;5054608;28;20075;-71
2022/07/27 09:30:16;;;;;;;4.30;0.73;;;;;;;16.53;100.00;101033.44;5059879;28;20368;-73
2022/07/27 09:33:03;;;;;;;2.85;1.10;;;;;;;16.51;100.00;101024.75;5055957;28;20478;-72
2022/07/27 09:35:33;;;;;;;3.28;0.88;;;;;;;16.60;100.00;101030.34;5053477;28;20048;-72
2022/07/27 09:38:18;;;;;;;4.25;1.08;;;;;;;16.73;100.00;101038.34;5057653;28;20029;-72
2022/07/27 09:40:44;;;;;;;;;;;;;;;16.75;100.00;101032.00;5050989;28;20060;-72
2022/07/27 09:43:12;;;;;;;2.50;0.63;;;;;;;16.72;100.00;101023.41;5055344;28;19920;-72
2022/07/27 09:45:42;;;;;;;6.45;1.45;;;;;;;16.74;100.00;101021.47;5060685;28;20044;-72
2022/07/27 09:48:11;;;;;;;2.17;1.00;;;;;;;16.86;100.00;101029.47;5036463;28;20380;-72
2022/07/27 09:50:44;;;;;;;2.67;0.90;;;;;;;16.95;100.00;101030.69;5055153;28;20031;-72
2022/07/27 09:53:20;;;;;;;3.13;1.30;;;;;;;17.04;100.00;101024.75;5057364;28;20368;-72
2022/07/27 09:55:56;;;;;;;2.90;1.05;;;;;;;17.25;100.00;101025.13;5053711;28;20025;-72
2022/07/27 09:58:37;;;;;;;2.10;0.90;;;;;;;17.61;100.00;101024.41;5074220;28;20029;-71
2022/07/27 10:01:02;;;;;;;13.20;1.63;;;;;;;18.03;100.00;101015.25;5055544;28;20025;-72
2022/07/27 10:03:28;;;;;;;2.78;1.30;;;;;;;18.29;100.00;101001.78;5091105;27;20036;-72
2022/07/27 10:05:53;;;;;;;3.47;1.30;;;;;;;18.42;100.00;101014.22;5056412;28;20048;-72
2022/07/27 10:08:19;;;;;;;3.78;1.25;;;;;;;18.23;100.00;101027.97;5058091;28;20025;-69
2022/07/27 10:10:44;;;;;;;2.97;1.35;;;;;;;17.79;100.00;101008.06;5054011;28;20598;-72
2022/07/27 10:13:10;;;;;;;3.90;1.10;;;;;;;17.64;100.00;101019.75;5090458;28;20115;-72
2022/07/27 10:15:39;;;;;;;3.97;1.50;;;;;;;17.51;100.00;101031.28;5054973;28;20055;-69
2022/07/27 10:18:09;;;;;;;5.60;1.50;;;;;;;17.32;100.00;101024.59;5056147;28;20032;-72
2022/07/27 10:20:37;;;;;;;3.22;1.38;;;;;;;17.28;100.00;101023.09;5058928;28;20046;-72
2022/07/27 10:23:03;;;;;;;3.78;1.20;;;;;;;17.31;100.00;101022.91;5061940;28;20029;-71
2022/07/27 10:25:29;;;;;;;3.70;1.45;;;;;;;17.35;100.00;101024.41;5060493;28;20097;-72
2022/07/27 10:28:12;;;;;;;2.78;0.98;;;;;;;17.34;100.00;101012.06;5059950;28;20079;-73
2022/07/27 10:30:37;;;;;;;4.82;1.27;;;;;;;17.43;100.00;101023.03;5062010;28;20055;-73
2022/07/27 10:33:42;;;;;;;7.22;1.40;;;;;;;17.56;100.00;101026.56;5075307;28;20024;-72
2022/07/27 10:36:18;;;;;;;4.07;1.15;;;;;;;17.54;100.00;101016.00;5071562;28;20028;-71
2022/07/27 10:38:55;;;;;;;6.47;1.33;;;;;;;17.69;100.00;101027.41;5047851;28;20053;-72
2022/07/27 10:41:30;;;;;;;4.75;1.55;;;;;;;17.73;100.00;101018.28;5059354;28;20072;-72
2022/07/27 10:44:17;;;;;;;2.80;0.98;;;;;;;17.94;100.00;101016.78;5063823;28;20025;-71
2022/07/27 10:46:53;;;;;;;3.92;1.00;;;;;;;18.16;100.00;101006.28;5070536;28;20048;-72
2022/07/27 10:49:23;;;;;;;8.43;1.60;;;;;;;18.40;100.00;101014.31;5072289;28;20028;-72
2022/07/27 10:51:51;;;;;;;3.17;1.00;;;;;;;18.56;100.00;100993.63;5072338;28;20090;-71
2022/07/27 10:54:36;;;;;;;3.15;1.20;;;;;;;19.01;99.28;101018.63;5075543;28;20103;-72
2022/07/27 10:57:04;;;;;;;3.25;1.05;;;;;;;19.19;99.38;100995.94;5057861;28;20467;-73
2022/07/27 10:59:39;;;;;;;4.10;1.50;;;;;;;19.13;94.34;101008.88;5071606;28;20060;-71
2022/07/27 11:02:04;;;;;;;6.22;1.30;;;;;;;19.05;97.56;101012.13;5070109;28;20857;-72
2022/07/27 11:04:31;;;;;;;4.25;1.25;;;;;;;19.25;96.21;100997.28;5072167;28;20202;-72
2022/07/27 11:07:01;;;;;;;4.20;1.10;;;;;;;19.20;93.27;100999.44;5057467;28;20025;-72
2022/07/27 11:09:40;;;;;;;3.47;0.93;;;;;;;19.22;97.15;100982.38;5060940;28;20029;-73
2022/07/27 11:12:08;;;;;;;3.70;1.33;;;;;;;19.46;91.53;100981.47;5076359;28;20101;-72
2022/07/27 11:14:51;;;;;;;3.85;1.30;;;;;;;19.48;88.89;100990.19;5068454;28;20028;-73
2022/07/27 11:17:28;;;;;;;3.28;0.98;;;;;;;19.54;88.56;100989.72;5058817;28;20908;-73
2022/07/27 11:19:58;;;;;;;4.25;1.52;;;;;;;19.38;81.54;100990.03;5065505;28;20025;-72
2022/07/27 11:22:37;;;;;;;5.65;1.25;;;;;;;18.97;82.78;100955.91;5053597;28;20029;-73